Time;durP1;ratioP1;P1;durP2;ratioP2;P2;SDS_P1;SDS_P2;PMS_P1;PMS_P2;Temp;Humidity;BMP_temperature;BMP_pressure;BME280_temperature;BME280_humidity;BME280_pressure;Samples;Min_cycle;Max_cycle;Signal;HPM_P1;HPM_P2
2021/08/23 00:00:33;;;;;;;14.45;4.05;;;15.90;99.90;;;;;;5065304;28;20032;-75
2021/08/23 00:02:59;;;;;;;10.70;4.20;;;15.90;99.90;;;;;;5065136;28;20378;-76
2021/08/23 00:05:25;;;;;;;13.27;4.50;;;15.90;99.90;;;;;;5080681;28;20055;-76
2021/08/23 00:07:50;;;;;;;10.10;4.45;;;15.90;99.90;;;;;;5080487;28;20052;-76
2021/08/23 00:10:16;;;;;;;8.98;4.13;;;15.90;99.90;;;;;;5065119;28;20556;-75
2021/08/23 00:12:42;;;;;;;9.45;4.28;;;15.90;99.90;;;;;;5080379;28;20101;-75
2021/08/23 00:15:09;;;;;;;6.45;3.17;;;15.90;99.90;;;;;;5064750;28;20036;-75
2021/08/23 00:17:35;;;;;;;15.18;3.80;;;15.80;99.90;;;;;;5064062;28;20117;-75
2021/08/23 00:20:04;;;;;;;11.45;4.70;;;15.90;99.90;;;;;;5065243;28;20048;-75
2021/08/23 00:22:32;;;;;;;8.48;3.78;;;15.80;99.90;;;;;;5064708;28;20044;-75
2021/08/23 00:25:00;;;;;;;7.63;3.00;;;15.80;99.90;;;;;;5064837;28;20025;-75
2021/08/23 00:27:28;;;;;;;7.80;4.10;;;15.80;99.90;;;;;;5064941;28;20060;-78
2021/08/23 00:29:54;;;;;;;17.55;4.90;;;15.80;99.90;;;;;;5064949;28;20036;-75
2021/08/23 00:32:20;;;;;;;11.60;4.20;;;15.70;99.90;;;;;;5080140;28;20071;-75
2021/08/23 00:34:46;;;;;;;8.50;3.42;;;15.80;99.90;;;;;;5064814;28;20041;-74
2021/08/23 00:37:12;;;;;;;13.57;3.70;;;15.70;99.90;;;;;;5064687;28;20029;-76
2021/08/23 00:39:38;;;;;;;8.75;4.15;;;15.70;99.90;;;;;;5064631;28;20033;-75
2021/08/23 00:42:05;;;;;;;16.10;3.85;;;15.80;99.90;;;;;;5064509;28;20107;-75
2021/08/23 00:44:33;;;;;;;12.43;4.80;;;15.70;99.90;;;;;;5064662;28;20029;-77
2021/08/23 00:47:01;;;;;;;9.02;4.03;;;15.60;99.90;;;;;;5064098;28;20033;-76
2021/08/23 00:49:29;;;;;;;8.32;3.75;;;15.60;99.90;;;;;;5080170;28;20056;-74
2021/08/23 00:51:57;;;;;;;10.02;4.50;;;15.60;99.90;;;;;;5064879;28;20045;-74
2021/08/23 00:54:23;;;;;;;14.98;3.90;;;15.60;99.90;;;;;;5065748;28;20025;-74
2021/08/23 00:56:50;;;;;;;17.13;5.15;;;15.60;99.90;;;;;;5064758;28;20025;-74
2021/08/23 00:59:18;;;;;;;9.80;4.82;;;15.60;99.90;;;;;;5079737;28;20044;-74
2021/08/23 01:01:47;;;;;;;20.83;5.22;;;15.60;99.90;;;;;;5064163;28;20045;-76
2021/08/23 01:04:25;;;;;;;8.13;4.95;;;15.50;99.90;;;;;;5079757;28;20025;-74
2021/08/23 01:06:52;;;;;;;17.67;5.88;;;15.60;99.90;;;;;;5064639;28;20087;-74
2021/08/23 01:09:18;;;;;;;10.52;5.43;;;15.60;99.90;;;;;;5063025;28;20029;-75
2021/08/23 01:11:54;;;;;;;11.55;6.03;;;15.50;99.90;;;;;;5064468;28;20040;-74
2021/08/23 01:14:20;;;;;;;11.05;5.65;;;15.50;99.90;;;;;;5064428;28;20025;-75
2021/08/23 01:16:46;;;;;;;12.93;6.50;;;15.50;99.90;;;;;;5063774;28;20117;-75
2021/08/23 01:19:13;;;;;;;12.20;6.35;;;15.60;99.90;;;;;;5079826;28;20076;-75
2021/08/23 01:21:39;;;;;;;13.38;5.93;;;15.50;99.90;;;;;;5064178;28;20032;-75
2021/08/23 01:24:08;;;;;;;17.80;6.70;;;15.60;99.90;;;;;;5064130;28;20036;-75
2021/08/23 01:26:47;;;;;;;11.80;6.18;;;15.60;99.90;;;;;;5064174;28;20053;-75
2021/08/23 01:29:17;;;;;;;15.23;6.47;;;15.50;99.90;;;;;;5079701;28;20060;-74
2021/08/23 01:32:08;;;;;;;20.27;8.32;;;15.50;99.90;;;;;;5064100;28;20051;-76
2021/08/23 01:34:34;;;;;;;16.05;6.32;;;15.50;99.90;;;;;;5064067;28;20021;-75
2021/08/23 01:37:02;;;;;;;18.13;6.50;;;15.60;99.90;;;;;;5064299;28;20044;-76
2021/08/23 01:39:28;;;;;;;19.27;6.18;;;15.50;99.90;;;;;;5079450;28;20029;-76
2021/08/23 01:41:54;;;;;;;11.88;5.57;;;15.50;99.90;;;;;;5064041;28;20049;-77
2021/08/23 01:44:19;;;;;;;12.18;6.55;;;15.60;99.90;;;;;;5079375;28;20059;-75
2021/08/23 01:46:45;;;;;;;16.90;5.45;;;15.50;99.90;;;;;;5064056;28;20025;-74
2021/08/23 01:49:10;;;;;;;9.90;5.45;;;15.50;99.90;;;;;;5063895;28;20036;-76
2021/08/23 01:51:36;;;;;;;8.82;5.28;;;15.40;99.90;;;;;;5064046;28;20033;-75
2021/08/23 01:54:04;;;;;;;14.15;6.35;;;15.50;99.90;;;;;;5079322;28;20021;-76
2021/08/23 01:56:30;;;;;;;14.23;5.97;;;15.60;99.90;;;;;;5064239;28;20021;-75
2021/08/23 01:59:02;;;;;;;11.73;5.80;;;15.50;99.90;;;;;;5065669;28;20025;-73
2021/08/23 02:01:32;;;;;;;14.32;5.63;;;15.40;99.90;;;;;;5067557;28;20037;-75
2021/08/23 02:03:58;;;;;;;8.98;4.28;;;15.40;99.90;;;;;;5082814;28;20043;-77
2021/08/23 02:06:24;;;;;;;11.98;5.20;;;15.40;99.90;;;;;;5067732;28;20028;-75
2021/08/23 02:08:50;;;;;;;14.45;5.25;;;15.40;99.90;;;;;;5067293;28;20025;-75
2021/08/23 02:11:17;;;;;;;21.17;5.93;;;15.40;99.90;;;;;;5082621;28;20028;-76
2021/08/23 02:13:46;;;;;;;10.20;5.15;;;15.40;99.90;;;;;;5082638;28;20036;-76
2021/08/23 02:16:11;;;;;;;11.13;4.53;;;15.40;99.90;;;;;;5067029;28;20041;-75
2021/08/23 02:18:37;;;;;;;18.02;5.68;;;15.40;99.90;;;;;;5067140;28;20029;-76
2021/08/23 02:21:02;;;;;;;15.02;5.60;;;15.50;99.90;;;;;;5067127;28;20083;-74
2021/08/23 02:23:28;;;;;;;11.60;5.63;;;15.40;99.90;;;;;;5067294;28;20044;-77
2021/08/23 02:25:55;;;;;;;10.77;5.15;;;15.40;99.90;;;;;;5067124;28;20040;-75
2021/08/23 02:28:21;;;;;;;13.63;5.25;;;15.30;99.90;;;;;;5066939;28;20135;-75
2021/08/23 02:30:46;;;;;;;9.77;5.03;;;15.40;99.90;;;;;;5067071;28;20725;-75
2021/08/23 02:33:12;;;;;;;18.08;5.85;;;15.40;99.90;;;;;;5065623;28;20140;-75
2021/08/23 02:35:38;;;;;;;16.40;5.25;;;15.40;99.90;;;;;;5082156;28;20032;-75
2021/08/23 02:38:03;;;;;;;14.88;5.13;;;15.40;99.90;;;;;;5066654;28;20063;-76
2021/08/23 02:40:29;;;;;;;9.48;4.97;;;15.30;99.90;;;;;;5082158;28;20032;-76
2021/08/23 02:42:57;;;;;;;9.50;4.82;;;15.30;99.90;;;;;;5082298;28;20029;-75
2021/08/23 02:45:22;;;;;;;9.85;4.85;;;15.30;99.90;;;;;;5082238;28;20032;-75
2021/08/23 02:47:48;;;;;;;9.95;4.88;;;15.30;99.90;;;;;;5066703;28;20031;-75
2021/08/23 02:50:13;;;;;;;12.07;4.82;;;15.30;99.90;;;;;;5065183;28;20025;-75
2021/08/23 02:52:39;;;;;;;14.43;5.97;;;15.30;99.90;;;;;;5066489;28;20081;-75
2021/08/23 02:55:06;;;;;;;11.32;4.97;;;15.20;99.90;;;;;;5066632;28;20029;-76
2021/08/23 02:57:32;;;;;;;13.57;6.45;;;15.30;99.90;;;;;;5065127;28;20055;-76
2021/08/23 02:59:57;;;;;;;10.02;5.53;;;15.30;99.90;;;;;;5081952;28;20489;-76
2021/08/23 03:02:23;;;;;;;12.38;5.85;;;15.30;99.90;;;;;;5066306;28;20045;-74
2021/08/23 03:04:49;;;;;;;14.73;6.20;;;15.20;99.90;;;;;;5066433;28;20036;-76
2021/08/23 03:07:15;;;;;;;14.27;6.38;;;15.20;99.90;;;;;;5067097;28;20025;-77
2021/08/23 03:09:40;;;;;;;10.27;5.38;;;15.20;99.90;;;;;;5067459;28;20009;-77
2021/08/23 03:12:06;;;;;;;13.00;6.20;;;15.20;99.90;;;;;;5071798;28;20013;-76
2021/08/23 03:14:38;;;;;;;8.80;5.15;;;15.20;99.90;;;;;;5066402;28;20021;-76
2021/08/23 03:17:04;;;;;;;13.07;6.70;;;15.20;99.90;;;;;;5065563;28;20056;-76
2021/08/23 03:19:31;;;;;;;11.98;5.97;;;15.20;99.90;;;;;;5066054;28;20111;-76
2021/08/23 03:21:56;;;;;;;12.88;6.13;;;15.20;99.90;;;;;;5065812;28;20041;-77
2021/08/23 03:24:28;;;;;;;15.10;6.38;;;15.20;99.90;;;;;;5065798;28;20021;-76
2021/08/23 03:26:55;;;;;;;10.77;6.03;;;15.20;99.90;;;;;;5065798;28;20039;-75
2021/08/23 03:29:28;;;;;;;14.32;6.10;;;15.30;99.90;;;;;;5065761;28;20100;-75
2021/08/23 03:31:53;;;;;;;12.75;5.30;;;15.20;99.90;;;;;;5065816;28;20025;-75
2021/08/23 03:34:19;;;;;;;17.45;6.47;;;15.30;99.90;;;;;;5065426;28;20040;-75
2021/08/23 03:36:46;;;;;;;8.27;4.82;;;15.40;99.90;;;;;;5065663;28;20032;-76
2021/08/23 03:39:17;;;;;;;10.98;4.95;;;15.20;99.90;;;;;;5065083;28;20029;-75
2021/08/23 03:41:43;;;;;;;11.18;5.22;;;15.20;99.90;;;;;;5080810;28;20063;-75
2021/08/23 03:44:12;;;;;;;8.80;4.95;;;15.20;99.90;;;;;;5064029;28;20021;-75
2021/08/23 03:46:37;;;;;;;12.70;5.28;;;15.20;99.90;;;;;;5065302;28;20028;-76
2021/08/23 03:49:06;;;;;;;9.07;5.43;;;15.30;99.90;;;;;;5065182;28;20025;-76
2021/08/23 03:51:32;;;;;;;17.73;6.25;;;15.30;99.90;;;;;;5063707;28;20028;-76
2021/08/23 03:54:03;;;;;;;11.32;5.38;;;15.30;99.90;;;;;;5065324;28;20028;-75
2021/08/23 03:56:29;;;;;;;12.27;5.95;;;15.30;99.90;;;;;;5065349;28;20040;-76
2021/08/23 03:58:54;;;;;;;8.88;5.30;;;15.30;99.90;;;;;;5064075;28;20033;-74
2021/08/23 04:01:20;;;;;;;13.10;5.88;;;15.30;99.90;;;;;;5063850;28;20068;-75
2021/08/23 04:03:46;;;;;;;12.88;6.30;;;15.30;99.90;;;;;;5065005;28;20481;-75
2021/08/23 04:06:12;;;;;;;12.27;6.00;;;15.30;99.90;;;;;;5065110;28;20035;-74
2021/08/23 04:08:38;;;;;;;12.63;6.57;;;15.30;99.90;;;;;;5065096;28;20066;-76
2021/08/23 04:11:05;;;;;;;11.75;6.32;;;15.30;99.90;;;;;;5065289;28;20044;-77
2021/08/23 04:13:31;;;;;;;13.23;5.72;;;15.30;99.90;;;;;;5065218;28;20066;-74
2021/08/23 04:16:00;;;;;;;13.95;6.28;;;15.20;99.90;;;;;;5063550;28;20507;-75
2021/08/23 04:18:27;;;;;;;10.25;5.22;;;15.20;99.90;;;;;;5065241;28;20033;-75
2021/08/23 04:20:53;;;;;;;11.27;6.05;;;15.20;99.90;;;;;;5063648;28;20037;-75
2021/08/23 04:23:19;;;;;;;11.60;5.57;;;15.10;99.90;;;;;;5059051;28;20101;-74
2021/08/23 04:25:44;;;;;;;12.02;5.82;;;15.10;99.90;;;;;;5063421;28;20061;-75
2021/08/23 04:28:10;;;;;;;12.75;5.40;;;15.00;99.90;;;;;;5064819;28;20076;-73
2021/08/23 04:30:36;;;;;;;19.50;5.57;;;15.10;99.90;;;;;;5063173;28;20097;-75
2021/08/23 04:33:01;;;;;;;11.20;5.70;;;15.00;99.90;;;;;;5064550;28;20155;-77
2021/08/23 04:35:27;;;;;;;14.00;4.90;;;15.00;99.90;;;;;;5064704;28;20024;-75
2021/08/23 04:37:52;;;;;;;15.05;5.47;;;15.00;99.90;;;;;;5064558;28;20469;-76
2021/08/23 04:40:24;;;;;;;9.93;5.25;;;15.00;99.90;;;;;;5064336;28;20037;-76
2021/08/23 04:42:50;;;;;;;8.93;4.70;;;14.90;99.90;;;;;;5064432;28;20096;-76
2021/08/23 04:45:16;;;;;;;7.50;4.72;;;14.90;99.90;;;;;;5064259;28;20044;-77
2021/08/23 04:47:41;;;;;;;10.35;5.47;;;14.80;99.90;;;;;;5063334;28;20172;-76
2021/08/23 04:50:10;;;;;;;13.52;5.57;;;15.00;99.90;;;;;;5064242;28;20029;-77
2021/08/23 04:52:43;;;;;;;23.45;6.03;;;14.90;99.90;;;;;;5064488;28;20028;-76
2021/08/23 04:55:10;;;;;;;9.05;4.85;;;14.90;99.90;;;;;;5079800;28;20049;-75
2021/08/23 04:57:36;;;;;;;14.93;5.28;;;14.90;99.90;;;;;;5064379;28;20040;-75
2021/08/23 05:00:02;;;;;;;6.55;4.38;;;14.90;99.90;;;;;;5064489;28;20032;-74
2021/08/23 05:02:29;;;;;;;8.65;4.72;;;14.90;99.90;;;;;;5064191;28;20041;-75
2021/08/23 05:04:55;;;;;;;7.97;4.97;;;14.90;99.90;;;;;;5080252;28;20032;-75
2021/08/23 05:07:21;;;;;;;11.32;5.18;;;14.90;99.90;;;;;;5079932;28;20036;-75
2021/08/23 05:09:46;;;;;;;9.93;5.07;;;14.90;99.90;;;;;;5063014;28;20021;-77
2021/08/23 05:12:12;;;;;;;8.85;4.53;;;14.80;99.90;;;;;;5063001;28;20534;-75
2021/08/23 05:14:37;;;;;;;11.02;4.95;;;14.90;99.90;;;;;;5062986;28;20025;-74
2021/08/23 05:17:03;;;;;;;10.75;5.15;;;14.90;99.90;;;;;;5064002;28;20098;-75
2021/08/23 05:19:29;;;;;;;9.65;5.05;;;14.90;99.90;;;;;;5062189;28;20037;-76
2021/08/23 05:21:54;;;;;;;7.82;4.25;;;14.90;99.90;;;;;;5064378;28;20041;-76
2021/08/23 05:24:20;;;;;;;7.03;3.85;;;15.10;99.90;;;;;;5063711;28;20397;-76
2021/08/23 05:26:45;;;;;;;10.45;3.85;;;14.90;99.90;;;;;;5064067;28;20021;-77
2021/08/23 05:29:11;;;;;;;7.15;3.90;;;15.10;99.90;;;;;;5062774;28;20033;-77
2021/08/23 05:31:37;;;;;;;10.35;3.80;;;15.00;99.90;;;;;;5064274;28;20364;-77
2021/08/23 05:34:02;;;;;;;10.63;4.13;;;15.00;99.90;;;;;;5064652;28;20057;-76
2021/08/23 05:36:28;;;;;;;7.45;3.22;;;15.00;99.90;;;;;;5067331;28;20056;-77
2021/08/23 05:38:54;;;;;;;6.13;3.75;;;15.00;99.90;;;;;;5067836;28;20387;-76
2021/08/23 05:41:19;;;;;;;9.23;4.30;;;15.00;99.90;;;;;;5066511;28;20045;-75
2021/08/23 05:43:45;;;;;;;10.48;3.90;;;15.00;99.90;;;;;;5066224;28;20155;-75
2021/08/23 05:46:11;;;;;;;6.25;3.47;;;15.00;99.90;;;;;;5067771;28;20037;-75
2021/08/23 05:48:37;;;;;;;6.85;2.92;;;15.00;99.90;;;;;;5063378;28;20029;-73
2021/08/23 05:51:02;;;;;;;5.88;3.28;;;15.00;99.90;;;;;;5052184;28;20390;-74
2021/08/23 05:53:28;;;;;;;12.75;4.00;;;15.00;99.90;;;;;;5054709;28;20143;-76
2021/08/23 05:55:54;;;;;;;6.68;3.15;;;15.00;99.90;;;;;;5054493;28;20036;-75
2021/08/23 05:58:20;;;;;;;5.85;2.90;;;15.00;99.90;;;;;;5061252;28;20021;-76
2021/08/23 06:00:45;;;;;;;5.07;2.65;;;15.00;99.90;;;;;;5073458;28;20454;-76
2021/08/23 06:03:14;;;;;;;13.40;2.50;;;15.10;99.90;;;;;;5051727;28;20040;-76
2021/08/23 06:05:39;;;;;;;5.93;2.78;;;15.00;99.90;;;;;;5058496;28;20029;-77
2021/08/23 06:08:06;;;;;;;4.55;2.13;;;15.00;99.90;;;;;;5064824;28;20108;-74
2021/08/23 06:10:34;;;;;;;6.93;2.63;;;15.00;99.90;;;;;;5066990;28;20029;-74
2021/08/23 06:13:00;;;;;;;4.80;2.30;;;15.00;99.90;;;;;;5066683;28;20029;-75
2021/08/23 06:15:25;;;;;;;5.88;1.98;;;15.00;99.90;;;;;;5065627;28;20033;-75
2021/08/23 06:17:51;;;;;;;4.32;2.00;;;15.10;99.90;;;;;;5064703;28;20097;-73
2021/08/23 06:20:16;;;;;;;3.33;1.77;;;15.10;99.90;;;;;;5066662;28;20033;-75
2021/08/23 06:22:43;;;;;;;4.43;2.00;;;15.10;99.90;;;;;;5065413;28;20123;-75
2021/08/23 06:25:09;;;;;;;5.07;2.45;;;15.10;99.90;;;;;;5067036;28;20108;-74
2021/08/23 06:27:35;;;;;;;4.97;2.20;;;15.20;99.90;;;;;;5067139;28;20025;-76
2021/08/23 06:30:06;;;;;;;2.85;1.90;;;15.20;99.90;;;;;;5065617;28;20025;-75
2021/08/23 06:32:31;;;;;;;2.53;1.42;;;15.20;99.90;;;;;;5064491;28;20037;-75
2021/08/23 06:35:03;;;;;;;4.07;1.85;;;15.30;99.90;;;;;;5065770;28;20108;-75
2021/08/23 06:37:31;;;;;;;2.53;1.70;;;15.30;99.90;;;;;;5065649;28;20420;-76
2021/08/23 06:39:58;;;;;;;4.35;2.13;;;15.30;99.90;;;;;;5067003;28;20040;-77
2021/08/23 06:42:25;;;;;;;2.22;1.33;;;15.40;99.90;;;;;;5066629;28;20056;-75
2021/08/23 06:44:50;;;;;;;4.15;1.40;;;15.40;99.90;;;;;;5069546;28;20049;-76
2021/08/23 06:47:16;;;;;;;2.88;1.65;;;15.40;99.90;;;;;;5064066;28;20033;-76
2021/08/23 06:49:43;;;;;;;6.82;1.77;;;15.40;99.90;;;;;;5065158;28;20088;-76
2021/08/23 06:52:09;;;;;;;2.33;1.55;;;15.50;99.90;;;;;;5065179;28;20029;-75
2021/08/23 06:54:35;;;;;;;6.35;1.77;;;15.60;99.90;;;;;;5066572;28;20021;-76
2021/08/23 06:57:01;;;;;;;2.30;1.40;;;15.70;99.90;;;;;;5066498;28;20055;-75
2021/08/23 06:59:28;;;;;;;3.72;1.27;;;15.90;99.90;;;;;;5066561;28;20043;-76
2021/08/23 07:01:55;;;;;;;4.30;1.70;;;15.80;99.90;;;;;;5066472;28;20044;-76
2021/08/23 07:04:20;;;;;;;2.22;1.02;;;15.90;99.90;;;;;;5065706;28;20036;-75
2021/08/23 07:06:46;;;;;;;2.35;1.08;;;16.00;99.90;;;;;;5066182;28;20030;-76
2021/08/23 07:09:12;;;;;;;4.70;1.60;;;16.00;99.90;;;;;;5066245;28;20028;-75
2021/08/23 07:11:38;;;;;;;3.17;1.42;;;16.10;99.90;;;;;;5065360;28;20029;-74
2021/08/23 07:14:04;;;;;;;3.45;1.23;;;16.10;99.90;;;;;;5071602;28;20033;-75
2021/08/23 07:16:31;;;;;;;1.45;1.20;;;16.20;99.90;;;;;;5045592;28;20057;-74
2021/08/23 07:18:56;;;;;;;2.45;1.48;;;16.20;99.90;;;;;;5065099;28;20028;-76
2021/08/23 07:21:22;;;;;;;2.10;1.10;;;16.20;99.90;;;;;;5064930;28;20131;-76
2021/08/23 07:23:47;;;;;;;2.78;1.20;;;16.20;99.90;;;;;;5065723;28;20043;-77
2021/08/23 07:26:14;;;;;;;3.75;1.30;;;16.40;99.90;;;;;;5063005;28;20030;-75
2021/08/23 07:28:40;;;;;;;2.33;1.27;;;16.60;99.90;;;;;;5069470;28;20068;-75
2021/08/23 07:31:05;;;;;;;6.18;1.38;;;16.60;99.90;;;;;;5044941;28;20470;-75
2021/08/23 07:33:32;;;;;;;1.33;0.88;;;16.60;99.90;;;;;;5043794;28;20112;-75
2021/08/23 07:35:58;;;;;;;1.85;1.23;;;16.80;99.90;;;;;;5045894;28;20025;-76
2021/08/23 07:38:24;;;;;;;5.30;1.13;;;16.90;99.90;;;;;;5060196;28;20029;-75
2021/08/23 07:40:49;;;;;;;3.03;0.82;;;16.90;99.90;;;;;;5065727;28;20044;-75
2021/08/23 07:43:15;;;;;;;4.25;1.55;;;17.00;99.90;;;;;;5064469;28;20079;-75
2021/08/23 07:45:41;;;;;;;2.28;0.90;;;17.10;99.90;;;;;;5064851;28;20024;-76
2021/08/23 07:48:07;;;;;;;1.90;1.10;;;17.00;99.90;;;;;;5064873;28;20028;-75
2021/08/23 07:50:33;;;;;;;3.20;1.40;;;17.00;99.90;;;;;;5065663;28;20032;-75
2021/08/23 07:52:59;;;;;;;2.42;1.10;;;17.10;99.90;;;;;;5058258;28;20037;-75
2021/08/23 07:55:25;;;;;;;2.70;1.45;;;17.20;99.90;;;;;;5053986;28;20035;-75
2021/08/23 07:57:51;;;;;;;3.45;1.40;;;17.10;99.90;;;;;;5052744;28;20033;-75
2021/08/23 08:00:18;;;;;;;3.17;1.40;;;17.20;99.90;;;;;;5053230;28;20056;-75
2021/08/23 08:02:44;;;;;;;3.17;1.08;;;17.30;99.90;;;;;;5061087;28;20044;-76
2021/08/23 08:05:12;;;;;;;15.98;2.17;;;17.30;99.90;;;;;;5064525;28;20390;-74
2021/08/23 08:07:37;;;;;;;1.17;0.93;;;17.40;99.90;;;;;;5063924;28;20060;-77
2021/08/23 08:10:05;;;;;;;2.42;1.17;;;17.40;99.90;;;;;;5065135;28;20025;-76
2021/08/23 08:12:38;;;;;;;2.40;1.42;;;17.60;99.90;;;;;;5061944;28;20029;-76
2021/08/23 08:15:05;;;;;;;5.13;1.67;;;17.70;99.90;;;;;;5064465;28;20119;-75
2021/08/23 08:17:31;;;;;;;5.03;1.70;;;17.90;99.90;;;;;;5060449;28;20060;-76
2021/08/23 08:19:57;;;;;;;2.47;1.20;;;18.00;99.90;;;;;;5063736;28;20116;-76
2021/08/23 08:22:23;;;;;;;1.60;0.80;;;18.20;99.90;;;;;;5062360;28;20098;-76
2021/08/23 08:24:49;;;;;;;2.67;0.80;;;18.30;99.90;;;;;;5062661;28;20329;-75
2021/08/23 08:27:24;;;;;;;5.57;1.00;;;18.50;99.90;;;;;;5064165;28;20481;-74
2021/08/23 08:29:49;;;;;;;2.17;0.98;;;18.60;99.90;;;;;;5064357;28;20033;-74
2021/08/23 08:32:15;;;;;;;4.60;1.17;;;18.70;99.90;;;;;;5063624;28;20032;-75
2021/08/23 08:34:40;;;;;;;4.10;0.80;;;18.80;99.90;;;;;;5064715;28;20108;-74
2021/08/23 08:37:06;;;;;;;2.45;0.93;;;18.80;99.90;;;;;;5063969;28;20135;-76
2021/08/23 08:39:33;;;;;;;1.95;1.05;;;18.90;99.90;;;;;;5064718;28;20029;-76
2021/08/23 08:42:03;;;;;;;1.13;0.70;;;18.90;99.90;;;;;;5053741;28;20041;-80
2021/08/23 08:44:29;;;;;;;8.75;1.00;;;19.00;99.90;;;;;;5061577;28;20033;-78
2021/08/23 08:46:57;;;;;;;1.70;0.90;;;19.10;99.90;;;;;;5053557;28;20119;-75
2021/08/23 08:49:24;;;;;;;4.10;1.50;;;19.20;99.90;;;;;;5048557;28;20402;-78
2021/08/23 08:51:50;;;;;;;1.27;0.77;;;19.30;99.90;;;;;;5063064;28;20047;-77
2021/08/23 08:54:16;;;;;;;0.98;0.80;;;19.40;99.90;;;;;;5064322;28;20017;-77
2021/08/23 08:56:42;;;;;;;1.55;0.50;;;19.70;99.90;;;;;;5063194;28;20128;-77
2021/08/23 08:59:07;;;;;;;3.00;1.00;;;19.80;99.90;;;;;;5054894;28;20394;-76
2021/08/23 09:01:33;;;;;;;1.13;0.75;;;20.00;99.90;;;;;;5060209;28;20093;-78
2021/08/23 09:04:04;;;;;;;1.25;0.60;;;20.10;99.90;;;;;;5065630;28;20033;-76
2021/08/23 09:06:41;;;;;;;2.10;1.00;;;20.10;99.90;;;;;;5080228;28;20057;-78
2021/08/23 09:09:22;;;;;;;0.82;0.70;;;20.20;99.90;;;;;;5059726;28;20089;-78
2021/08/23 09:12:04;;;;;;;1.27;0.73;;;20.20;99.90;;;;;;5063960;28;20033;-80
2021/08/23 09:14:31;;;;;;;0.50;0.32;;;20.10;99.90;;;;;;5057098;28;20044;-74
2021/08/23 09:17:09;;;;;;;1.55;0.70;;;20.10;99.90;;;;;;5057352;28;20053;-78
2021/08/23 09:19:37;;;;;;;1.52;0.73;;;20.00;99.90;;;;;;5067297;28;20025;-76
2021/08/23 09:22:25;;;;;;;2.15;0.70;;;19.80;99.90;;;;;;5068036;28;20174;-71
2021/08/23 09:24:50;;;;;;;0.65;0.50;;;19.70;99.90;;;;;;5068275;28;20028;-75
2021/08/23 09:27:16;;;;;;;0.57;0.50;;;19.60;99.90;;;;;;5067936;28;20028;-75
2021/08/23 09:29:56;;;;;;;1.45;0.47;;;19.60;99.90;;;;;;5067503;28;20025;-76
2021/08/23 09:32:25;;;;;;;7.82;0.95;;;19.80;99.90;;;;;;5060353;28;20432;-76
2021/08/23 09:34:51;;;;;;;2.30;0.70;;;20.10;99.90;;;;;;5054093;28;20037;-75
2021/08/23 09:37:22;;;;;;;4.30;0.55;;;20.30;99.90;;;;;;5061421;28;20040;-75
2021/08/23 09:39:48;;;;;;;1.08;0.77;;;20.40;99.90;;;;;;5051141;28;20040;-76
2021/08/23 09:42:17;;;;;;;1.45;0.63;;;20.50;99.90;;;;;;5058369;28;20040;-74
2021/08/23 09:44:43;;;;;;;1.13;0.50;;;20.50;99.90;;;;;;5062339;28;20090;-76
2021/08/23 09:47:10;;;;;;;1.25;0.50;;;20.50;99.90;;;;;;5062436;28;20033;-76
2021/08/23 09:49:41;;;;;;;11.40;1.25;;;20.70;99.90;;;;;;5055830;28;20024;-75
2021/08/23 09:52:11;;;;;;;0.43;0.43;;;20.90;99.90;;;;;;5060545;28;20158;-76
2021/08/23 09:54:39;;;;;;;2.10;0.80;;;20.90;99.90;;;;;;5062135;28;20036;-79
2021/08/23 09:57:05;;;;;;;2.50;0.43;;;21.00;99.90;;;;;;5065146;28;20033;-74
2021/08/23 09:59:39;;;;;;;0.90;0.47;;;21.10;99.90;;;;;;5066887;28;20037;-77
2021/08/23 10:02:09;;;;;;;4.88;0.80;;;21.20;99.90;;;;;;5066305;28;20041;-78
2021/08/23 10:04:34;;;;;;;0.57;0.40;;;21.20;99.90;;;;;;5066515;28;20102;-78
2021/08/23 10:07:07;;;;;;;2.60;0.93;;;21.30;99.90;;;;;;5064644;28;20485;-77
2021/08/23 10:09:42;;;;;;;2.58;0.77;;;21.50;99.90;;;;;;5081515;28;20040;-78
2021/08/23 10:12:12;;;;;;;2.35;0.77;;;21.60;99.90;;;;;;5061728;28;20037;-77
2021/08/23 10:14:42;;;;;;;2.85;1.45;;;21.70;99.90;;;;;;5051835;28;20025;-78
2021/08/23 10:17:09;;;;;;;0.93;0.50;;;21.70;99.90;;;;;;5059467;28;20072;-76
2021/08/23 10:19:36;;;;;;;2.72;1.02;;;21.80;99.90;;;;;;5065334;28;20146;-78
2021/08/23 10:22:04;;;;;;;7.60;0.70;;;21.90;99.90;;;;;;5066208;28;20041;-80
2021/08/23 10:24:31;;;;;;;2.65;0.75;;;22.00;99.90;;;;;;5066362;28;20055;-77
2021/08/23 10:26:59;;;;;;;0.93;0.60;;;22.10;99.90;;;;;;5064845;28;20377;-78
2021/08/23 10:29:36;;;;;;;0.47;0.40;;;22.00;99.90;;;;;;5066414;28;20027;-76
2021/08/23 10:32:09;;;;;;;1.58;0.40;;;22.10;99.90;;;;;;5064731;28;20044;-76
2021/08/23 10:34:35;;;;;;;2.58;0.68;;;22.20;99.90;;;;;;5064733;28;20029;-77
2021/08/23 10:37:01;;;;;;;0.93;0.50;;;22.30;99.90;;;;;;5064879;28;20025;-78
2021/08/23 10:39:31;;;;;;;2.15;0.73;;;22.40;99.90;;;;;;5064690;28;20190;-77
2021/08/23 10:41:58;;;;;;;0.60;0.40;;;22.50;99.90;;;;;;5064532;28;20045;-77
2021/08/23 10:44:33;;;;;;;0.60;0.60;;;22.50;99.90;;;;;;5064520;28;20727;-78
2021/08/23 10:47:06;;;;;;;0.60;0.30;;;22.60;99.90;;;;;;5064656;28;20029;-78
2021/08/23 10:49:44;;;;;;;3.53;0.77;;;22.70;99.90;;;;;;5064295;28;20493;-76
2021/08/23 10:52:11;;;;;;;4.25;0.45;;;23.00;99.90;;;;;;5064254;28;20036;-77
2021/08/23 10:54:42;;;;;;;1.45;0.50;;;23.10;99.90;;;;;;5065626;28;20029;-77
2021/08/23 10:57:11;;;;;;;1.23;0.52;;;23.20;99.90;;;;;;5065211;28;20084;-77
2021/08/23 10:59:44;;;;;;;0.60;0.43;;;23.30;99.90;;;;;;5061790;28;20033;-79
2021/08/23 11:02:20;;;;;;;0.50;0.30;;;23.50;99.90;;;;;;5061395;28;20068;-77
2021/08/23 11:04:57;;;;;;;0.82;0.40;;;23.50;99.90;;;;;;5051725;28;20029;-76
2021/08/23 11:07:25;;;;;;;0.63;0.20;;;23.40;99.90;;;;;;5056074;28;20021;-80
2021/08/23 11:10:15;;;;;;;3.53;0.40;;;23.50;99.90;;;;;;5060967;28;20833;-77
2021/08/23 11:12:46;;;;;;;1.65;0.65;;;23.60;99.90;;;;;;5045748;28;20029;-78
2021/08/23 11:15:24;;;;;;;0.60;0.35;;;23.50;99.90;;;;;;5045953;28;20067;-80
2021/08/23 11:17:52;;;;;;;1.30;0.50;;;23.50;99.90;;;;;;5044207;28;20045;-77
2021/08/23 11:20:27;;;;;;;2.05;0.60;;;23.50;99.90;;;;;;5045122;28;20034;-76
2021/08/23 11:23:03;;;;;;;3.60;0.57;;;23.60;99.90;;;;;;5049119;28;20052;-77
2021/08/23 11:25:32;;;;;;;3.60;0.60;;;23.60;99.90;;;;;;5054032;28;20025;-77
2021/08/23 11:28:00;;;;;;;0.57;0.40;;;23.60;99.90;;;;;;5066149;28;20025;-76
2021/08/23 11:30:35;;;;;;;0.38;0.25;;;23.60;99.90;;;;;;5060062;28;20040;-74
2021/08/23 11:33:04;;;;;;;2.85;0.30;;;23.90;99.90;;;;;;5056808;28;20025;-73
2021/08/23 11:35:30;;;;;;;0.55;0.28;;;24.00;99.90;;;;;;5062962;28;20088;-75
2021/08/23 11:38:03;;;;;;;0.63;0.40;;;24.00;99.90;;;;;;5045306;28;20052;-76
2021/08/23 11:40:30;;;;;;;0.82;0.50;;;24.00;99.90;;;;;;5043743;28;20426;-75
2021/08/23 11:42:59;;;;;;;0.40;0.30;;;24.10;99.90;;;;;;5045062;28;20064;-71
2021/08/23 11:45:37;;;;;;;1.33;0.60;;;24.20;99.90;;;;;;5045672;28;20028;-77
2021/08/23 11:48:03;;;;;;;0.55;0.40;;;24.40;99.90;;;;;;5075127;28;20082;-76
2021/08/23 11:50:30;;;;;;;0.73;0.50;;;24.50;99.90;;;;;;5065517;28;20025;-82
2021/08/23 11:53:05;;;;;;;4.20;1.33;;;24.70;99.90;;;;;;5081125;28;20029;-72
2021/08/23 11:55:36;;;;;;;1.83;0.50;;;24.70;99.90;;;;;;5065690;28;20025;-75
2021/08/23 11:58:06;;;;;;;2.53;0.55;;;24.70;99.90;;;;;;5065270;28;20048;-75
2021/08/23 12:00:33;;;;;;;0.98;0.47;;;24.70;99.90;;;;;;5065216;28;20029;-77
2021/08/23 12:03:07;;;;;;;1.27;0.45;;;24.70;99.90;;;;;;5065334;28;20032;-72
2021/08/23 12:05:35;;;;;;;;;;;24.80;99.90;;;;;;5065954;28;20075;-78
2021/08/23 12:08:02;;;;;;;0.90;0.60;;;24.80;99.90;;;;;;5064001;28;19904;-75
2021/08/23 12:10:34;;;;;;;1.10;0.60;;;25.00;99.90;;;;;;5079965;28;20071;-79
2021/08/23 12:13:14;;;;;;;0.63;0.50;;;25.10;99.90;;;;;;5064104;28;20052;-76
2021/08/23 12:15:55;;;;;;;2.63;0.77;;;25.20;99.90;;;;;;5062048;28;20033;-77
2021/08/23 12:18:45;;;;;;;3.15;0.60;;;25.40;99.90;;;;;;5050589;28;20049;-74
2021/08/23 12:21:32;;;;;;;1.83;0.70;;;25.60;99.90;;;;;;5063639;28;20047;-73
2021/08/23 12:24:05;;;;;;;1.05;0.50;;;25.50;99.90;;;;;;5058486;28;20450;-78
2021/08/23 12:26:30;;;;;;;1.63;0.50;;;25.40;99.90;;;;;;5055675;28;20030;-75
2021/08/23 12:29:00;;;;;;;2.50;0.75;;;25.40;99.90;;;;;;5055349;28;20040;-79
2021/08/23 12:31:27;;;;;;;1.27;0.90;;;25.50;99.90;;;;;;5080167;28;20029;-79
2021/08/23 12:33:52;;;;;;;1.25;0.63;;;25.60;99.90;;;;;;5062392;28;20033;-78
2021/08/23 12:36:18;;;;;;;1.63;0.65;;;25.70;99.90;;;;;;5061398;28;20036;-80
2021/08/23 12:38:45;;;;;;;0.55;0.40;;;25.90;99.90;;;;;;5062614;28;20031;-80
2021/08/23 12:41:12;;;;;;;0.70;0.40;;;26.20;99.90;;;;;;5061460;28;20028;-77
2021/08/23 12:43:39;;;;;;;2.65;0.65;;;26.50;99.90;;;;;;5060420;28;20034;-79
2021/08/23 12:46:05;;;;;;;1.98;0.60;;;26.40;99.90;;;;;;5061237;28;20039;-80